sensor_id;sensor_type;location;lat;lon;timestamp;temperature;humidity
44705;DHT22;30431;48.520;9.046;2022-12-07T00:01:42;4.60;99.90
44705;DHT22;30431;48.520;9.046;2022-12-07T00:04:17;4.60;99.90
44705;DHT22;30431;48.520;9.046;2022-12-07T00:06:46;4.60;99.90
44705;DHT22;30431;48.520;9.046;2022-12-07T00:09:15;4.60;99.90
44705;DHT22;30431;48.520;9.046;2022-12-07T00:11:43;4.60;99.90
44705;DHT22;30431;48.520;9.046;2022-12-07T00:14:13;4.60;99.90
44705;DHT22;30431;48.520;9.046;2022-12-07T00:16:40;4.60;99.90
44705;DHT22;30431;48.520;9.046;2022-12-07T00:19:10;4.60;99.90
44705;DHT22;30431;48.520;9.046;2022-12-07T00:21:37;4.70;99.90
44705;DHT22;30431;48.520;9.046;2022-12-07T00:24:09;4.60;99.90
44705;DHT22;30431;48.520;9.046;2022-12-07T00:26:39;4.50;99.90
44705;DHT22;30431;48.520;9.046;2022-12-07T00:31:38;4.60;99.90
44705;DHT22;30431;48.520;9.046;2022-12-07T00:34:07;4.50;99.90
44705;DHT22;30431;48.520;9.046;2022-12-07T00:36:36;4.50;99.90
44705;DHT22;30431;48.520;9.046;2022-12-07T00:39:06;4.60;99.90
44705;DHT22;30431;48.520;9.046;2022-12-07T00:41:35;4.60;99.90
44705;DHT22;30431;48.520;9.046;2022-12-07T00:44:05;4.60;99.90
44705;DHT22;30431;48.520;9.046;2022-12-07T00:46:32;4.60;99.90
44705;DHT22;30431;48.520;9.046;2022-12-07T00:49:04;4.60;99.90
44705;DHT22;30431;48.520;9.046;2022-12-07T00:51:31;4.60;99.90
44705;DHT22;30431;48.520;9.046;2022-12-07T00:53:58;4.60;99.90
44705;DHT22;30431;48.520;9.046;2022-12-07T00:56:26;4.60;99.90
44705;DHT22;30431;48.520;9.046;2022-12-07T00:58:59;4.50;99.90
44705;DHT22;30431;48.520;9.046;2022-12-07T01:01:31;4.50;99.90
44705;DHT22;30431;48.520;9.046;2022-12-07T01:04:04;4.40;99.90
44705;DHT22;30431;48.520;9.046;2022-12-07T01:06:32;4.40;99.90
44705;DHT22;30431;48.520;9.046;2022-12-07T01:08:59;4.50;99.90
44705;DHT22;30431;48.520;9.046;2022-12-07T01:11:27;4.50;99.90
44705;DHT22;30431;48.520;9.046;2022-12-07T01:13:56;4.50;99.90
44705;DHT22;30431;48.520;9.046;2022-12-07T01:16:26;4.50;99.90
44705;DHT22;30431;48.520;9.046;2022-12-07T01:18:54;4.50;99.90
44705;DHT22;30431;48.520;9.046;2022-12-07T01:21:32;4.50;99.90
44705;DHT22;30431;48.520;9.046;2022-12-07T01:24:06;4.50;99.90
44705;DHT22;30431;48.520;9.046;2022-12-07T01:26:34;4.50;99.90
44705;DHT22;30431;48.520;9.046;2022-12-07T01:29:01;4.40;99.90
44705;DHT22;30431;48.520;9.046;2022-12-07T01:31:31;4.40;99.90
44705;DHT22;30431;48.520;9.046;2022-12-07T01:33:59;4.30;99.90
44705;DHT22;30431;48.520;9.046;2022-12-07T01:36:32;4.30;99.90
44705;DHT22;30431;48.520;9.046;2022-12-07T01:39:04;4.40;99.90
44705;DHT22;30431;48.520;9.046;2022-12-07T01:41:34;4.40;99.90
44705;DHT22;30431;48.520;9.046;2022-12-07T01:44:21;4.40;99.90
44705;DHT22;30431;48.520;9.046;2022-12-07T01:46:53;4.40;99.90
44705;DHT22;30431;48.520;9.046;2022-12-07T01:49:46;4.50;99.90
44705;DHT22;30431;48.520;9.046;2022-12-07T01:52:20;4.50;99.90
44705;DHT22;30431;48.520;9.046;2022-12-07T01:54:52;4.50;99.90
44705;DHT22;30431;48.520;9.046;2022-12-07T01:57:21;4.50;99.90
44705;DHT22;30431;48.520;9.046;2022-12-07T01:59:50;4.50;99.90
44705;DHT22;30431;48.520;9.046;2022-12-07T02:02:48;4.50;99.90
44705;DHT22;30431;48.520;9.046;2022-12-07T02:05:18;4.50;99.90
44705;DHT22;30431;48.520;9.046;2022-12-07T02:07:47;4.50;99.90
44705;DHT22;30431;48.520;9.046;2022-12-07T02:12:58;4.40;99.90
44705;DHT22;30431;48.520;9.046;2022-12-07T02:25:55;4.50;99.90
44705;DHT22;30431;48.520;9.046;2022-12-07T02:28:31;4.60;99.90
44705;DHT22;30431;48.520;9.046;2022-12-07T02:31:09;4.50;99.90
44705;DHT22;30431;48.520;9.046;2022-12-07T02:33:54;4.40;99.90
44705;DHT22;30431;48.520;9.046;2022-12-07T02:36:32;4.50;99.90
44705;DHT22;30431;48.520;9.046;2022-12-07T02:39:06;4.40;99.90
44705;DHT22;30431;48.520;9.046;2022-12-07T02:41:43;4.40;99.90
44705;DHT22;30431;48.520;9.046;2022-12-07T02:44:14;4.40;99.90
44705;DHT22;30431;48.520;9.046;2022-12-07T02:46:51;4.40;99.90
44705;DHT22;30431;48.520;9.046;2022-12-07T02:49:24;4.40;99.90
44705;DHT22;30431;48.520;9.046;2022-12-07T02:51:52;4.30;99.90
44705;DHT22;30431;48.520;9.046;2022-12-07T02:54:20;4.20;99.90
44705;DHT22;30431;48.520;9.046;2022-12-07T02:57:07;4.10;99.90
44705;DHT22;30431;48.520;9.046;2022-12-07T03:10:58;3.60;99.90
44705;DHT22;30431;48.520;9.046;2022-12-07T03:14:12;3.50;99.90
44705;DHT22;30431;48.520;9.046;2022-12-07T03:17:12;3.30;99.90
44705;DHT22;30431;48.520;9.046;2022-12-07T03:19:40;3.20;99.90
44705;DHT22;30431;48.520;9.046;2022-12-07T03:22:13;3.20;99.90
44705;DHT22;30431;48.520;9.046;2022-12-07T03:24:58;3.20;99.90
44705;DHT22;30431;48.520;9.046;2022-12-07T03:27:39;3.30;99.90
44705;DHT22;30431;48.520;9.046;2022-12-07T03:30:15;3.40;99.90
44705;DHT22;30431;48.520;9.046;2022-12-07T03:32:44;3.40;99.90
44705;DHT22;30431;48.520;9.046;2022-12-07T03:35:27;3.40;99.90
44705;DHT22;30431;48.520;9.046;2022-12-07T03:40:32;3.20;99.90
44705;DHT22;30431;48.520;9.046;2022-12-07T03:43:01;3.30;99.90
44705;DHT22;30431;48.520;9.046;2022-12-07T03:45:44;3.30;99.90
44705;DHT22;30431;48.520;9.046;2022-12-07T03:48:35;3.40;99.90
44705;DHT22;30431;48.520;9.046;2022-12-07T03:51:20;3.40;99.90
44705;DHT22;30431;48.520;9.046;2022-12-07T03:54:13;3.40;99.90
44705;DHT22;30431;48.520;9.046;2022-12-07T03:56:45;3.40;99.90
44705;DHT22;30431;48.520;9.046;2022-12-07T03:59:14;3.40;99.90
44705;DHT22;30431;48.520;9.046;2022-12-07T04:01:51;3.30;99.90
44705;DHT22;30431;48.520;9.046;2022-12-07T04:04:19;3.40;99.90
44705;DHT22;30431;48.520;9.046;2022-12-07T04:06:50;3.40;99.90
44705;DHT22;30431;48.520;9.046;2022-12-07T04:09:20;3.30;99.90
44705;DHT22;30431;48.520;9.046;2022-12-07T04:11:48;3.30;99.90
44705;DHT22;30431;48.520;9.046;2022-12-07T04:14:17;3.30;99.90
44705;DHT22;30431;48.520;9.046;2022-12-07T04:16:58;3.30;99.90
44705;DHT22;30431;48.520;9.046;2022-12-07T04:19:31;3.40;99.90
44705;DHT22;30431;48.520;9.046;2022-12-07T04:21:59;3.30;99.90
44705;DHT22;30431;48.520;9.046;2022-12-07T04:24:27;3.30;99.90
44705;DHT22;30431;48.520;9.046;2022-12-07T04:26:57;3.30;99.90
44705;DHT22;30431;48.520;9.046;2022-12-07T04:29:25;3.30;99.90
44705;DHT22;30431;48.520;9.046;2022-12-07T04:31:52;3.20;99.90
44705;DHT22;30431;48.520;9.046;2022-12-07T04:34:21;3.30;99.90
44705;DHT22;30431;48.520;9.046;2022-12-07T04:36:51;3.30;99.90
44705;DHT22;30431;48.520;9.046;2022-12-07T04:39:24;3.20;99.90
44705;DHT22;30431;48.520;9.046;2022-12-07T04:41:51;3.30;99.90
44705;DHT22;30431;48.520;9.046;2022-12-07T04:44:20;3.30;99.90
44705;DHT22;30431;48.520;9.046;2022-12-07T04:46:50;3.20;99.90
44705;DHT22;30431;48.520;9.046;2022-12-07T04:49:19;3.10;99.90
44705;DHT22;30431;48.520;9.046;2022-12-07T04:51:50;3.10;99.90
44705;DHT22;30431;48.520;9.046;2022-12-07T04:54:17;3.20;99.90
44705;DHT22;30431;48.520;9.046;2022-12-07T04:56:44;3.20;99.90
44705;DHT22;30431;48.520;9.046;2022-12-07T04:59:12;3.20;99.90
44705;DHT22;30431;48.520;9.046;2022-12-07T05:01:39;3.20;99.90
44705;DHT22;30431;48.520;9.046;2022-12-07T05:04:07;3.20;99.90
44705;DHT22;30431;48.520;9.046;2022-12-07T05:06:34;3.20;99.90
44705;DHT22;30431;48.520;9.046;2022-12-07T05:09:01;3.10;99.90
44705;DHT22;30431;48.520;9.046;2022-12-07T05:11:29;3.00;99.90
44705;DHT22;30431;48.520;9.046;2022-12-07T05:14:16;2.90;99.90
44705;DHT22;30431;48.520;9.046;2022-12-07T05:16:45;2.80;99.90
44705;DHT22;30431;48.520;9.046;2022-12-07T05:19:15;2.70;99.90
44705;DHT22;30431;48.520;9.046;2022-12-07T05:21:45;2.60;99.90
44705;DHT22;30431;48.520;9.046;2022-12-07T05:24:15;2.50;99.90
44705;DHT22;30431;48.520;9.046;2022-12-07T05:26:43;2.30;99.90
44705;DHT22;30431;48.520;9.046;2022-12-07T05:29:13;2.20;99.90
44705;DHT22;30431;48.520;9.046;2022-12-07T05:31:43;2.10;99.90
44705;DHT22;30431;48.520;9.046;2022-12-07T05:34:13;2.00;99.90
44705;DHT22;30431;48.520;9.046;2022-12-07T05:36:42;1.80;99.90
44705;DHT22;30431;48.520;9.046;2022-12-07T05:39:10;1.60;99.90
44705;DHT22;30431;48.520;9.046;2022-12-07T05:41:39;1.50;99.90
44705;DHT22;30431;48.520;9.046;2022-12-07T05:44:25;1.40;99.90
44705;DHT22;30431;48.520;9.046;2022-12-07T05:46:52;1.30;99.90
44705;DHT22;30431;48.520;9.046;2022-12-07T05:49:21;1.20;99.90
44705;DHT22;30431;48.520;9.046;2022-12-07T05:51:48;1.10;99.90
44705;DHT22;30431;48.520;9.046;2022-12-07T05:54:15;1.20;99.90
44705;DHT22;30431;48.520;9.046;2022-12-07T05:56:42;1.10;99.90
44705;DHT22;30431;48.520;9.046;2022-12-07T05:59:09;1.10;99.90
44705;DHT22;30431;48.520;9.046;2022-12-07T06:04:23;0.90;99.90
44705;DHT22;30431;48.520;9.046;2022-12-07T06:06:51;0.80;99.90
44705;DHT22;30431;48.520;9.046;2022-12-07T06:09:22;0.70;99.90
44705;DHT22;30431;48.520;9.046;2022-12-07T06:11:51;0.60;99.90
44705;DHT22;30431;48.520;9.046;2022-12-07T06:14:39;0.50;99.90
44705;DHT22;30431;48.520;9.046;2022-12-07T06:17:12;0.50;99.90
44705;DHT22;30431;48.520;9.046;2022-12-07T06:19:42;0.50;99.90
44705;DHT22;30431;48.520;9.046;2022-12-07T06:22:09;0.50;99.90
44705;DHT22;30431;48.520;9.046;2022-12-07T06:24:38;0.50;99.90
44705;DHT22;30431;48.520;9.046;2022-12-07T06:27:05;0.60;99.90
44705;DHT22;30431;48.520;9.046;2022-12-07T06:29:32;0.50;99.90
44705;DHT22;30431;48.520;9.046;2022-12-07T06:32:02;0.40;99.90
44705;DHT22;30431;48.520;9.046;2022-12-07T06:34:29;0.40;99.90
44705;DHT22;30431;48.520;9.046;2022-12-07T06:36:56;0.40;99.90
44705;DHT22;30431;48.520;9.046;2022-12-07T06:39:27;0.40;99.90
44705;DHT22;30431;48.520;9.046;2022-12-07T06:41:54;0.30;99.90
44705;DHT22;30431;48.520;9.046;2022-12-07T06:44:26;0.30;99.90
44705;DHT22;30431;48.520;9.046;2022-12-07T06:46:53;0.40;99.90
44705;DHT22;30431;48.520;9.046;2022-12-07T06:49:45;0.40;99.90
44705;DHT22;30431;48.520;9.046;2022-12-07T06:52:14;0.50;99.90
44705;DHT22;30431;48.520;9.046;2022-12-07T06:54:41;0.60;99.90
44705;DHT22;30431;48.520;9.046;2022-12-07T06:57:10;0.60;99.90
44705;DHT22;30431;48.520;9.046;2022-12-07T06:59:37;0.70;99.90
44705;DHT22;30431;48.520;9.046;2022-12-07T07:02:04;0.80;99.90
44705;DHT22;30431;48.520;9.046;2022-12-07T07:04:36;0.90;99.90
44705;DHT22;30431;48.520;9.046;2022-12-07T07:07:03;1.00;99.90
44705;DHT22;30431;48.520;9.046;2022-12-07T07:09:33;1.10;99.90
44705;DHT22;30431;48.520;9.046;2022-12-07T07:12:00;1.10;99.90
44705;DHT22;30431;48.520;9.046;2022-12-07T07:14:27;1.20;99.90
44705;DHT22;30431;48.520;9.046;2022-12-07T07:16:56;1.20;99.90
44705;DHT22;30431;48.520;9.046;2022-12-07T07:19:26;1.30;99.90
44705;DHT22;30431;48.520;9.046;2022-12-07T07:21:53;1.40;99.90
44705;DHT22;30431;48.520;9.046;2022-12-07T07:24:20;1.40;99.90
44705;DHT22;30431;48.520;9.046;2022-12-07T07:26:50;1.50;99.90
44705;DHT22;30431;48.520;9.046;2022-12-07T07:29:22;1.50;99.90
44705;DHT22;30431;48.520;9.046;2022-12-07T07:31:52;1.60;99.90
44705;DHT22;30431;48.520;9.046;2022-12-07T07:34:19;1.60;99.90
44705;DHT22;30431;48.520;9.046;2022-12-07T07:36:46;1.60;99.90
44705;DHT22;30431;48.520;9.046;2022-12-07T07:39:16;1.70;99.90
44705;DHT22;30431;48.520;9.046;2022-12-07T07:41:43;1.70;99.90
44705;DHT22;30431;48.520;9.046;2022-12-07T07:44:13;1.80;99.90
44705;DHT22;30431;48.520;9.046;2022-12-07T07:46:42;1.90;99.90
44705;DHT22;30431;48.520;9.046;2022-12-07T07:49:12;2.00;99.90
44705;DHT22;30431;48.520;9.046;2022-12-07T07:51:46;2.00;99.90
44705;DHT22;30431;48.520;9.046;2022-12-07T07:54:13;2.10;99.90
44705;DHT22;30431;48.520;9.046;2022-12-07T07:56:42;2.20;99.90
44705;DHT22;30431;48.520;9.046;2022-12-07T07:59:09;2.30;99.90
44705;DHT22;30431;48.520;9.046;2022-12-07T08:01:36;2.40;99.90
44705;DHT22;30431;48.520;9.046;2022-12-07T08:04:03;2.50;99.90
44705;DHT22;30431;48.520;9.046;2022-12-07T08:06:30;2.60;99.90
44705;DHT22;30431;48.520;9.046;2022-12-07T08:08:58;2.60;99.90
44705;DHT22;30431;48.520;9.046;2022-12-07T08:11:25;2.60;99.90
44705;DHT22;30431;48.520;9.046;2022-12-07T08:13:54;2.80;99.90
44705;DHT22;30431;48.520;9.046;2022-12-07T08:16:22;2.90;99.90
44705;DHT22;30431;48.520;9.046;2022-12-07T08:18:49;3.00;99.90
44705;DHT22;30431;48.520;9.046;2022-12-07T08:21:16;3.10;99.90
44705;DHT22;30431;48.520;9.046;2022-12-07T08:23:43;3.10;99.90
44705;DHT22;30431;48.520;9.046;2022-12-07T08:26:14;3.20;99.90
44705;DHT22;30431;48.520;9.046;2022-12-07T08:28:41;3.30;99.90
44705;DHT22;30431;48.520;9.046;2022-12-07T08:31:16;3.50;99.90
44705;DHT22;30431;48.520;9.046;2022-12-07T08:33:50;3.50;99.90
44705;DHT22;30431;48.520;9.046;2022-12-07T08:36:18;3.60;99.90
44705;DHT22;30431;48.520;9.046;2022-12-07T08:38:45;3.70;99.90
44705;DHT22;30431;48.520;9.046;2022-12-07T08:41:32;3.80;99.90
44705;DHT22;30431;48.520;9.046;2022-12-07T08:44:04;3.90;99.90
44705;DHT22;30431;48.520;9.046;2022-12-07T08:46:46;4.00;99.90
44705;DHT22;30431;48.520;9.046;2022-12-07T08:49:25;4.10;99.90
44705;DHT22;30431;48.520;9.046;2022-12-07T08:51:54;4.20;99.90
44705;DHT22;30431;48.520;9.046;2022-12-07T08:54:22;4.20;99.90
44705;DHT22;30431;48.520;9.046;2022-12-07T08:56:50;4.20;99.90
44705;DHT22;30431;48.520;9.046;2022-12-07T08:59:26;4.30;99.90
44705;DHT22;30431;48.520;9.046;2022-12-07T09:01:53;4.20;99.90
44705;DHT22;30431;48.520;9.046;2022-12-07T09:04:21;4.40;99.90
44705;DHT22;30431;48.520;9.046;2022-12-07T09:06:50;4.60;99.90
44705;DHT22;30431;48.520;9.046;2022-12-07T09:09:17;4.70;99.90
44705;DHT22;30431;48.520;9.046;2022-12-07T09:11:49;4.80;99.90
44705;DHT22;30431;48.520;9.046;2022-12-07T09:14:16;4.80;99.90
44705;DHT22;30431;48.520;9.046;2022-12-07T09:16:44;4.70;99.90
44705;DHT22;30431;48.520;9.046;2022-12-07T09:19:11;4.80;99.90
44705;DHT22;30431;48.520;9.046;2022-12-07T09:21:37;4.90;99.90
44705;DHT22;30431;48.520;9.046;2022-12-07T09:24:05;5.00;99.90
44705;DHT22;30431;48.520;9.046;2022-12-07T09:26:32;5.10;99.90
44705;DHT22;30431;48.520;9.046;2022-12-07T09:29:02;5.20;99.90
44705;DHT22;30431;48.520;9.046;2022-12-07T09:31:29;5.30;99.90
44705;DHT22;30431;48.520;9.046;2022-12-07T09:34:00;5.40;99.90
44705;DHT22;30431;48.520;9.046;2022-12-07T09:36:29;5.30;99.90
44705;DHT22;30431;48.520;9.046;2022-12-07T09:38:57;5.20;99.90
44705;DHT22;30431;48.520;9.046;2022-12-07T09:41:25;5.30;99.90
44705;DHT22;30431;48.520;9.046;2022-12-07T09:44:06;5.30;99.90
44705;DHT22;30431;48.520;9.046;2022-12-07T09:46:36;5.50;99.90
44705;DHT22;30431;48.520;9.046;2022-12-07T09:49:05;5.70;99.90
44705;DHT22;30431;48.520;9.046;2022-12-07T09:51:36;5.90;99.90
44705;DHT22;30431;48.520;9.046;2022-12-07T09:54:07;5.80;99.90
44705;DHT22;30431;48.520;9.046;2022-12-07T09:56:38;5.80;99.90
44705;DHT22;30431;48.520;9.046;2022-12-07T09:59:05;5.90;99.90
44705;DHT22;30431;48.520;9.046;2022-12-07T10:01:33;6.10;99.90
44705;DHT22;30431;48.520;9.046;2022-12-07T10:06:41;6.10;99.90
44705;DHT22;30431;48.520;9.046;2022-12-07T10:09:13;6.10;99.90
44705;DHT22;30431;48.520;9.046;2022-12-07T10:12:10;6.00;99.90
44705;DHT22;30431;48.520;9.046;2022-12-07T10:14:57;6.10;99.90
44705;DHT22;30431;48.520;9.046;2022-12-07T10:17:40;6.10;99.90
44705;DHT22;30431;48.520;9.046;2022-12-07T10:23:13;5.80;99.90
44705;DHT22;30431;48.520;9.046;2022-12-07T10:25:40;5.70;99.90
44705;DHT22;30431;48.520;9.046;2022-12-07T10:28:15;5.80;99.90
44705;DHT22;30431;48.520;9.046;2022-12-07T10:31:26;5.80;99.90
44705;DHT22;30431;48.520;9.046;2022-12-07T10:33:54;6.00;99.90
44705;DHT22;30431;48.520;9.046;2022-12-07T10:36:26;6.10;99.90
44705;DHT22;30431;48.520;9.046;2022-12-07T10:39:00;6.10;99.90
44705;DHT22;30431;48.520;9.046;2022-12-07T10:41:28;6.10;99.90
44705;DHT22;30431;48.520;9.046;2022-12-07T10:43:57;6.10;99.90
44705;DHT22;30431;48.520;9.046;2022-12-07T10:54:52;6.30;99.90
44705;DHT22;30431;48.520;9.046;2022-12-07T10:57:33;6.30;99.90
44705;DHT22;30431;48.520;9.046;2022-12-07T11:02:38;6.10;99.90
44705;DHT22;30431;48.520;9.046;2022-12-07T11:08:21;6.20;99.90
44705;DHT22;30431;48.520;9.046;2022-12-07T11:17:05;6.30;99.90
44705;DHT22;30431;48.520;9.046;2022-12-07T11:36:05;6.40;99.90
44705;DHT22;30431;48.520;9.046;2022-12-07T11:38:41;6.50;99.90
44705;DHT22;30431;48.520;9.046;2022-12-07T11:41:09;6.60;99.90
44705;DHT22;30431;48.520;9.046;2022-12-07T11:46:34;6.50;99.90
44705;DHT22;30431;48.520;9.046;2022-12-07T11:51:45;6.40;99.90
44705;DHT22;30431;48.520;9.046;2022-12-07T11:54:28;6.50;99.90
44705;DHT22;30431;48.520;9.046;2022-12-07T11:57:02;6.60;99.90
44705;DHT22;30431;48.520;9.046;2022-12-07T11:59:39;6.70;99.90
44705;DHT22;30431;48.520;9.046;2022-12-07T12:02:36;6.60;99.90
44705;DHT22;30431;48.520;9.046;2022-12-07T12:05:17;6.50;99.90
44705;DHT22;30431;48.520;9.046;2022-12-07T12:07:47;6.60;99.90
44705;DHT22;30431;48.520;9.046;2022-12-07T12:19:30;6.90;99.90
44705;DHT22;30431;48.520;9.046;2022-12-07T12:22:20;6.80;99.90
44705;DHT22;30431;48.520;9.046;2022-12-07T12:24:53;6.60;99.90
44705;DHT22;30431;48.520;9.046;2022-12-07T12:29:53;6.60;99.90
44705;DHT22;30431;48.520;9.046;2022-12-07T12:32:24;6.60;99.90
44705;DHT22;30431;48.520;9.046;2022-12-07T12:37:47;6.80;99.90
44705;DHT22;30431;48.520;9.046;2022-12-07T12:42:52;6.90;99.90
44705;DHT22;30431;48.520;9.046;2022-12-07T12:45:25;6.90;99.90
44705;DHT22;30431;48.520;9.046;2022-12-07T12:50:36;6.90;99.90
44705;DHT22;30431;48.520;9.046;2022-12-07T12:53:23;6.70;99.90
44705;DHT22;30431;48.520;9.046;2022-12-07T12:59:30;6.80;99.90
44705;DHT22;30431;48.520;9.046;2022-12-07T13:02:20;6.70;99.90
44705;DHT22;30431;48.520;9.046;2022-12-07T13:15:47;6.70;99.90
44705;DHT22;30431;48.520;9.046;2022-12-07T13:20:57;6.70;99.90
44705;DHT22;30431;48.520;9.046;2022-12-07T13:26:35;6.70;99.90
44705;DHT22;30431;48.520;9.046;2022-12-07T13:29:20;6.60;99.90
44705;DHT22;30431;48.520;9.046;2022-12-07T13:31:52;6.70;99.90
44705;DHT22;30431;48.520;9.046;2022-12-07T13:39:49;6.50;99.90
44705;DHT22;30431;48.520;9.046;2022-12-07T13:42:26;6.60;99.90
44705;DHT22;30431;48.520;9.046;2022-12-07T13:44:55;6.40;99.90
44705;DHT22;30431;48.520;9.046;2022-12-07T13:47:39;6.20;99.90
44705;DHT22;30431;48.520;9.046;2022-12-07T13:50:29;6.20;99.90
44705;DHT22;30431;48.520;9.046;2022-12-07T13:53:00;6.30;99.90
44705;DHT22;30431;48.520;9.046;2022-12-07T13:55:28;6.40;99.90
44705;DHT22;30431;48.520;9.046;2022-12-07T13:57:56;6.50;99.90
44705;DHT22;30431;48.520;9.046;2022-12-07T14:00:26;6.50;99.90
44705;DHT22;30431;48.520;9.046;2022-12-07T14:02:57;6.60;99.90
44705;DHT22;30431;48.520;9.046;2022-12-07T14:05:31;6.60;99.90
44705;DHT22;30431;48.520;9.046;2022-12-07T14:10:35;6.60;99.90
44705;DHT22;30431;48.520;9.046;2022-12-07T14:15:50;6.40;99.90
44705;DHT22;30431;48.520;9.046;2022-12-07T14:23:39;6.10;99.90
44705;DHT22;30431;48.520;9.046;2022-12-07T14:26:07;6.20;99.90
44705;DHT22;30431;48.520;9.046;2022-12-07T14:28:36;6.10;99.90
44705;DHT22;30431;48.520;9.046;2022-12-07T14:31:11;6.10;99.90
44705;DHT22;30431;48.520;9.046;2022-12-07T14:33:51;6.10;99.90
44705;DHT22;30431;48.520;9.046;2022-12-07T14:36:21;6.10;99.90
44705;DHT22;30431;48.520;9.046;2022-12-07T14:38:50;6.10;99.90
44705;DHT22;30431;48.520;9.046;2022-12-07T14:41:21;6.00;99.90
44705;DHT22;30431;48.520;9.046;2022-12-07T14:44:16;5.80;99.90
44705;DHT22;30431;48.520;9.046;2022-12-07T14:46:59;5.80;99.90
44705;DHT22;30431;48.520;9.046;2022-12-07T14:49:49;5.80;99.90
44705;DHT22;30431;48.520;9.046;2022-12-07T14:52:22;5.70;99.90
44705;DHT22;30431;48.520;9.046;2022-12-07T14:55:16;5.70;99.90
44705;DHT22;30431;48.520;9.046;2022-12-07T14:57:45;5.60;99.90
44705;DHT22;30431;48.520;9.046;2022-12-07T15:00:16;5.50;99.90
44705;DHT22;30431;48.520;9.046;2022-12-07T15:02:45;5.50;99.90
44705;DHT22;30431;48.520;9.046;2022-12-07T15:05:12;5.50;99.90
44705;DHT22;30431;48.520;9.046;2022-12-07T15:07:45;5.40;99.90
44705;DHT22;30431;48.520;9.046;2022-12-07T15:10:25;5.40;99.90
44705;DHT22;30431;48.520;9.046;2022-12-07T15:13:00;5.40;99.90
44705;DHT22;30431;48.520;9.046;2022-12-07T15:15:49;5.40;99.90
44705;DHT22;30431;48.520;9.046;2022-12-07T15:18:17;5.30;99.90
44705;DHT22;30431;48.520;9.046;2022-12-07T15:20:47;5.30;99.90
44705;DHT22;30431;48.520;9.046;2022-12-07T15:23:14;5.20;99.90
44705;DHT22;30431;48.520;9.046;2022-12-07T15:25:42;5.20;99.90
44705;DHT22;30431;48.520;9.046;2022-12-07T15:28:09;5.10;99.90
44705;DHT22;30431;48.520;9.046;2022-12-07T15:30:38;5.10;99.90
44705;DHT22;30431;48.520;9.046;2022-12-07T15:33:11;5.10;99.90
44705;DHT22;30431;48.520;9.046;2022-12-07T15:35:42;5.00;99.90
44705;DHT22;30431;48.520;9.046;2022-12-07T15:38:12;4.90;99.90
44705;DHT22;30431;48.520;9.046;2022-12-07T15:40:42;4.90;99.90
44705;DHT22;30431;48.520;9.046;2022-12-07T15:43:09;4.90;99.90
44705;DHT22;30431;48.520;9.046;2022-12-07T15:45:56;4.80;99.90
44705;DHT22;30431;48.520;9.046;2022-12-07T15:48:26;4.80;99.90
44705;DHT22;30431;48.520;9.046;2022-12-07T15:51:02;4.80;99.90
44705;DHT22;30431;48.520;9.046;2022-12-07T15:53:30;4.90;99.90
44705;DHT22;30431;48.520;9.046;2022-12-07T15:55:57;4.90;99.90
44705;DHT22;30431;48.520;9.046;2022-12-07T15:58:24;4.90;99.90
44705;DHT22;30431;48.520;9.046;2022-12-07T16:00:53;4.80;99.90
44705;DHT22;30431;48.520;9.046;2022-12-07T16:03:20;4.90;99.90
44705;DHT22;30431;48.520;9.046;2022-12-07T16:05:52;4.90;99.90
44705;DHT22;30431;48.520;9.046;2022-12-07T16:08:19;4.90;99.90
44705;DHT22;30431;48.520;9.046;2022-12-07T16:10:47;4.90;99.90
44705;DHT22;30431;48.520;9.046;2022-12-07T16:13:14;4.90;99.90
44705;DHT22;30431;48.520;9.046;2022-12-07T16:15:41;4.90;99.90
44705;DHT22;30431;48.520;9.046;2022-12-07T16:18:09;4.90;99.90
44705;DHT22;30431;48.520;9.046;2022-12-07T16:20:36;4.80;99.90
44705;DHT22;30431;48.520;9.046;2022-12-07T16:23:06;4.70;99.90
44705;DHT22;30431;48.520;9.046;2022-12-07T16:25:36;4.70;99.90
44705;DHT22;30431;48.520;9.046;2022-12-07T16:28:08;4.70;99.90
44705;DHT22;30431;48.520;9.046;2022-12-07T16:30:37;4.70;99.90
44705;DHT22;30431;48.520;9.046;2022-12-07T16:33:04;4.60;99.90
44705;DHT22;30431;48.520;9.046;2022-12-07T16:35:33;4.60;99.90
44705;DHT22;30431;48.520;9.046;2022-12-07T16:38:03;4.50;99.90
44705;DHT22;30431;48.520;9.046;2022-12-07T16:40:29;4.50;99.90
44705;DHT22;30431;48.520;9.046;2022-12-07T16:42:56;4.40;99.90
44705;DHT22;30431;48.520;9.046;2022-12-07T16:45:26;4.30;99.90
44705;DHT22;30431;48.520;9.046;2022-12-07T16:47:54;4.20;99.90
44705;DHT22;30431;48.520;9.046;2022-12-07T16:50:21;4.20;99.90
44705;DHT22;30431;48.520;9.046;2022-12-07T16:52:51;4.10;99.90
44705;DHT22;30431;48.520;9.046;2022-12-07T16:55:18;4.00;99.90
44705;DHT22;30431;48.520;9.046;2022-12-07T16:57:45;4.00;99.90
44705;DHT22;30431;48.520;9.046;2022-12-07T17:00:14;4.00;99.90
44705;DHT22;30431;48.520;9.046;2022-12-07T17:02:43;4.20;99.90
44705;DHT22;30431;48.520;9.046;2022-12-07T17:05:15;4.20;99.90
44705;DHT22;30431;48.520;9.046;2022-12-07T17:07:42;4.20;99.90
44705;DHT22;30431;48.520;9.046;2022-12-07T17:10:11;4.20;99.90
44705;DHT22;30431;48.520;9.046;2022-12-07T17:12:40;4.10;99.90
44705;DHT22;30431;48.520;9.046;2022-12-07T17:15:09;4.00;99.90
44705;DHT22;30431;48.520;9.046;2022-12-07T17:20:19;4.00;99.90
44705;DHT22;30431;48.520;9.046;2022-12-07T17:22:47;4.10;99.90
44705;DHT22;30431;48.520;9.046;2022-12-07T17:25:17;4.00;99.90
44705;DHT22;30431;48.520;9.046;2022-12-07T17:27:46;3.90;99.90
44705;DHT22;30431;48.520;9.046;2022-12-07T17:30:15;3.70;99.90
44705;DHT22;30431;48.520;9.046;2022-12-07T17:32:47;3.50;99.90
44705;DHT22;30431;48.520;9.046;2022-12-07T17:35:20;3.30;99.90
44705;DHT22;30431;48.520;9.046;2022-12-07T17:37:47;3.30;99.90
44705;DHT22;30431;48.520;9.046;2022-12-07T17:40:17;3.30;99.90
44705;DHT22;30431;48.520;9.046;2022-12-07T17:42:49;3.40;99.90
44705;DHT22;30431;48.520;9.046;2022-12-07T17:45:19;3.50;99.90
44705;DHT22;30431;48.520;9.046;2022-12-07T17:47:46;3.50;99.90
44705;DHT22;30431;48.520;9.046;2022-12-07T17:50:16;3.50;99.90
44705;DHT22;30431;48.520;9.046;2022-12-07T17:52:43;3.50;99.90
44705;DHT22;30431;48.520;9.046;2022-12-07T17:55:28;3.60;99.90
44705;DHT22;30431;48.520;9.046;2022-12-07T17:58:04;3.50;99.90
44705;DHT22;30431;48.520;9.046;2022-12-07T18:00:32;3.50;99.90
44705;DHT22;30431;48.520;9.046;2022-12-07T18:03:07;3.30;99.90
44705;DHT22;30431;48.520;9.046;2022-12-07T18:05:36;3.10;99.90
44705;DHT22;30431;48.520;9.046;2022-12-07T18:08:04;3.00;99.90
44705;DHT22;30431;48.520;9.046;2022-12-07T18:10:32;2.80;99.90
44705;DHT22;30431;48.520;9.046;2022-12-07T18:12:58;2.80;99.90
44705;DHT22;30431;48.520;9.046;2022-12-07T18:15:46;2.80;99.90
44705;DHT22;30431;48.520;9.046;2022-12-07T18:18:15;2.90;99.90
44705;DHT22;30431;48.520;9.046;2022-12-07T18:20:42;2.90;99.90
44705;DHT22;30431;48.520;9.046;2022-12-07T18:23:10;2.90;99.90
44705;DHT22;30431;48.520;9.046;2022-12-07T18:25:38;2.90;99.90
44705;DHT22;30431;48.520;9.046;2022-12-07T18:28:08;2.90;99.90
44705;DHT22;30431;48.520;9.046;2022-12-07T18:30:39;2.90;99.90
44705;DHT22;30431;48.520;9.046;2022-12-07T18:33:30;3.00;99.90